createdAt,value
2019-03-06T00:01:10.456Z,14.03
2019-03-06T00:03:40.021Z,14.07
2019-03-06T00:06:16.446Z,14.23
2019-03-06T00:08:40.697Z,15.07
2019-03-06T00:11:10.140Z,14.07
2019-03-06T00:13:39.750Z,14.43
2019-03-06T00:16:09.353Z,14.90
2019-03-06T00:18:38.770Z,15.07
2019-03-06T00:21:08.179Z,15.07
2019-03-06T00:23:37.549Z,13.90
2019-03-06T00:26:07.006Z,13.23
2019-03-06T00:28:36.379Z,14.60
2019-03-06T00:31:05.850Z,13.50
2019-03-06T00:33:35.376Z,14.57
2019-03-06T00:36:06.868Z,14.40
2019-03-06T00:38:36.242Z,13.03
2019-03-06T00:41:10.017Z,11.97
2019-03-06T00:43:39.430Z,11.40
2019-03-06T00:46:10.523Z,10.70
2019-03-06T00:48:39.915Z,10.57
2019-03-06T00:51:09.458Z,10.57
2019-03-06T00:53:38.856Z,10.47
2019-03-06T00:56:08.297Z,9.77
2019-03-06T00:58:37.682Z,10.90
2019-03-06T01:01:07.122Z,11.47
2019-03-06T01:03:36.604Z,10.97
2019-03-06T01:06:06.205Z,10.30
2019-03-06T01:08:35.769Z,11.50
2019-03-06T01:11:05.483Z,11.90
2019-03-06T01:13:34.885Z,11.27
2019-03-06T01:16:04.318Z,12.33
2019-03-06T01:18:33.692Z,11.80
2019-03-06T01:21:03.105Z,14.00
2019-03-06T01:23:32.790Z,12.70
2019-03-06T01:26:02.373Z,12.87
2019-03-06T01:28:31.770Z,13.53
2019-03-06T01:31:01.260Z,13.67
2019-03-06T01:33:35.232Z,13.87
2019-03-06T01:36:18.501Z,15.27
2019-03-06T01:39:01.577Z,16.07
2019-03-06T01:41:32.791Z,15.90
2019-03-06T01:44:16.001Z,16.77
2019-03-06T01:46:45.407Z,16.17
2019-03-06T01:49:14.775Z,17.33
2019-03-06T01:51:44.153Z,16.40
2019-03-06T01:54:13.560Z,17.87
2019-03-06T01:56:42.912Z,17.83
2019-03-06T01:59:12.447Z,17.67
2019-03-06T02:01:42.022Z,17.97
2019-03-06T02:04:11.493Z,18.17
2019-03-06T02:06:40.862Z,17.90
2019-03-06T02:09:10.304Z,19.00
2019-03-06T02:11:39.705Z,19.50
2019-03-06T02:14:09.067Z,19.57
2019-03-06T02:16:38.522Z,19.43
2019-03-06T02:19:07.977Z,19.93
2019-03-06T02:21:37.406Z,18.43
2019-03-06T02:24:06.783Z,18.20
2019-03-06T02:26:36.339Z,18.87
2019-03-06T02:29:05.791Z,18.53
2019-03-06T02:31:35.163Z,19.30
2019-03-06T02:34:04.628Z,18.10
2019-03-06T02:36:34.011Z,18.10
2019-03-06T02:39:04.932Z,18.47
2019-03-06T02:41:34.319Z,18.47
2019-03-06T02:44:03.687Z,18.43
2019-03-06T02:46:33.058Z,17.97
2019-03-06T02:49:02.445Z,17.03
2019-03-06T02:51:32.187Z,17.43
2019-03-06T02:54:01.569Z,16.97
2019-03-06T02:56:30.940Z,17.43
2019-03-06T02:59:05.100Z,16.03
2019-03-06T03:01:36.105Z,17.13
2019-03-06T03:04:07.205Z,16.07
2019-03-06T03:06:38.198Z,16.43
2019-03-06T03:09:13.471Z,16.63
2019-03-06T03:11:42.842Z,14.93
2019-03-06T03:14:12.463Z,15.83
2019-03-06T03:16:41.946Z,15.97
2019-03-06T03:19:11.646Z,15.77
2019-03-06T03:21:41.028Z,16.70
2019-03-06T03:24:10.430Z,16.63
2019-03-06T03:26:39.872Z,15.87
2019-03-06T03:29:09.251Z,16.73
2019-03-06T03:31:38.690Z,16.20
2019-03-06T03:34:08.085Z,15.77
2019-03-06T03:36:37.647Z,16.20
2019-03-06T03:39:07.939Z,16.07
2019-03-06T03:41:37.416Z,16.47
2019-03-06T03:44:06.821Z,15.43
2019-03-06T03:46:36.185Z,15.87
2019-03-06T03:49:05.691Z,15.37
2019-03-06T03:51:35.362Z,15.53
2019-03-06T03:54:04.882Z,15.63
2019-03-06T03:56:34.353Z,16.07
2019-03-06T03:59:03.884Z,16.50
2019-03-06T04:01:33.489Z,16.40
2019-03-06T04:04:04.719Z,16.73
2019-03-06T04:06:34.130Z,17.10
2019-03-06T04:09:04.590Z,17.03
2019-03-06T04:11:34.024Z,17.27
2019-03-06T04:14:03.513Z,16.93
2019-03-06T04:16:33.240Z,16.63
2019-03-06T04:19:02.704Z,17.97
2019-03-06T04:21:32.006Z,18.97
2019-03-06T04:24:01.384Z,18.33
2019-03-06T04:26:30.773Z,17.77
2019-03-06T04:29:00.424Z,18.30
2019-03-06T04:31:29.885Z,18.30
2019-03-06T04:33:59.272Z,17.63
2019-03-06T04:36:28.726Z,17.87
2019-03-06T04:38:58.093Z,17.40
2019-03-06T04:41:27.747Z,18.00
2019-03-06T04:43:57.134Z,18.50
2019-03-06T04:46:26.492Z,17.60
2019-03-06T04:48:55.950Z,19.93
2019-03-06T04:51:25.318Z,29.57
2019-03-06T04:53:54.716Z,24.23
2019-03-06T04:56:24.071Z,20.30
2019-03-06T04:58:53.518Z,20.33
2019-03-06T05:01:22.895Z,19.90
2019-03-06T05:03:52.323Z,19.77
2019-03-06T05:06:21.781Z,20.33
2019-03-06T05:08:52.849Z,20.07
2019-03-06T05:11:22.254Z,21.13
2019-03-06T05:13:51.619Z,19.73
2019-03-06T05:16:22.648Z,20.13
2019-03-06T05:18:53.676Z,20.10
2019-03-06T05:21:23.347Z,20.67
2019-03-06T05:23:54.254Z,21.43
2019-03-06T05:26:23.637Z,23.07
2019-03-06T05:28:53.387Z,22.47
2019-03-06T05:31:22.788Z,20.97
2019-03-06T05:33:52.158Z,20.27
2019-03-06T05:36:27.391Z,22.30
2019-03-06T05:39:08.673Z,20.33
2019-03-06T05:41:41.225Z,20.70
2019-03-06T05:44:10.584Z,20.47
2019-03-06T05:46:39.967Z,20.27
2019-03-06T05:49:09.627Z,20.87
2019-03-06T05:51:38.996Z,21.93
2019-03-06T05:54:08.403Z,22.97
2019-03-06T05:56:39.399Z,24.50
2019-03-06T05:59:08.778Z,22.83
2019-03-06T06:01:57.504Z,23.13
2019-03-06T06:04:27.027Z,22.60
2019-03-06T06:06:56.888Z,22.00
2019-03-06T06:09:32.605Z,24.27
2019-03-06T06:12:02.066Z,23.70
2019-03-06T06:14:31.448Z,24.33
2019-03-06T06:17:02.566Z,23.17
2019-03-06T06:19:33.559Z,23.57
2019-03-06T06:22:20.946Z,24.20
2019-03-06T06:24:50.830Z,23.00
2019-03-06T06:27:21.935Z,20.83
2019-03-06T06:29:53.575Z,20.83
2019-03-06T06:32:23.061Z,19.70
2019-03-06T06:34:52.434Z,22.17
2019-03-06T06:37:21.826Z,19.60
2019-03-06T06:39:51.215Z,19.73
2019-03-06T06:42:20.587Z,18.83
2019-03-06T06:44:49.979Z,18.07
2019-03-06T06:47:31.369Z,25.90
2019-03-06T06:50:00.767Z,19.03
2019-03-06T06:53:06.660Z,17.63
2019-03-06T06:55:39.138Z,17.47
2019-03-06T06:58:14.658Z,17.93
2019-03-06T07:01:18.513Z,18.40
2019-03-06T07:04:07.178Z,17.87
2019-03-06T07:06:43.729Z,17.67
2019-03-06T07:09:14.924Z,17.63
2019-03-06T07:12:03.868Z,17.70
2019-03-06T07:14:40.612Z,17.10
2019-03-06T07:17:11.802Z,17.13
2019-03-06T07:19:42.850Z,16.50
2019-03-06T07:22:28.983Z,16.60
2019-03-06T07:25:00.310Z,16.27
2019-03-06T07:27:37.592Z,15.33
2019-03-06T07:30:14.720Z,16.70
2019-03-06T07:32:48.720Z,15.83
2019-03-06T07:35:59.955Z,17.63
2019-03-06T07:38:29.417Z,18.17
2019-03-06T07:41:06.204Z,17.43
2019-03-06T07:43:52.579Z,17.67
2019-03-06T07:46:42.068Z,15.00
2019-03-06T07:49:25.258Z,14.63
2019-03-06T07:52:05.212Z,14.77
2019-03-06T07:54:47.907Z,14.13
2019-03-06T07:57:18.934Z,13.17
2019-03-06T07:59:48.318Z,12.43
2019-03-06T08:02:24.025Z,12.37
2019-03-06T08:04:56.451Z,10.83
2019-03-06T08:07:25.816Z,10.80
2019-03-06T08:09:55.237Z,10.83
2019-03-06T08:12:26.279Z,10.23
2019-03-06T08:15:09.250Z,10.23
2019-03-06T08:17:51.850Z,9.67
2019-03-06T08:20:22.955Z,10.30
2019-03-06T08:22:54.018Z,9.73
2019-03-06T08:25:25.097Z,10.97
2019-03-06T08:27:54.484Z,10.20
2019-03-06T08:30:25.343Z,10.17
2019-03-06T08:32:54.780Z,8.93
2019-03-06T08:35:24.151Z,9.40
2019-03-06T08:37:53.504Z,9.23
2019-03-06T08:40:22.957Z,9.17
2019-03-06T08:42:53.008Z,9.23
2019-03-06T08:45:24.125Z,9.00
2019-03-06T08:47:55.337Z,8.50
2019-03-06T08:50:26.608Z,8.60
2019-03-06T08:53:11.555Z,8.20
2019-03-06T08:55:45.815Z,7.77
2019-03-06T08:58:17.270Z,7.17
2019-03-06T09:00:52.625Z,7.83
2019-03-06T09:03:34.637Z,6.93
2019-03-06T09:06:06.814Z,7.03
2019-03-06T09:08:37.912Z,6.93
2019-03-06T09:11:27.196Z,7.20
2019-03-06T09:14:04.135Z,6.93
2019-03-06T09:16:35.242Z,7.30
2019-03-06T09:19:06.819Z,6.70
2019-03-06T09:21:50.263Z,6.83
2019-03-06T09:24:33.205Z,5.90
2019-03-06T09:27:04.315Z,6.67
2019-03-06T09:29:35.431Z,6.80
2019-03-06T09:32:06.590Z,5.97
2019-03-06T09:34:49.580Z,5.90
2019-03-06T09:37:29.466Z,6.23
2019-03-06T09:40:00.543Z,5.80
2019-03-06T09:42:34.528Z,5.87
2019-03-06T09:45:06.972Z,5.40
2019-03-06T09:47:52.882Z,5.47
2019-03-06T09:50:32.727Z,5.67
2019-03-06T09:53:13.277Z,5.47
2019-03-06T09:55:50.908Z,5.20
2019-03-06T09:58:37.316Z,5.20
2019-03-06T10:01:08.405Z,5.30
2019-03-06T10:03:51.525Z,5.10
2019-03-06T10:06:25.005Z,5.60
2019-03-06T10:08:58.784Z,4.63
2019-03-06T10:11:41.916Z,4.90
2019-03-06T10:14:21.879Z,4.63
2019-03-06T10:16:58.876Z,5.37
2019-03-06T10:19:29.937Z,4.70
2019-03-06T10:21:59.381Z,4.47
2019-03-06T10:24:28.845Z,4.07
2019-03-06T10:27:00.752Z,4.60
2019-03-06T10:29:33.117Z,4.03
2019-03-06T10:32:02.576Z,4.23
2019-03-06T10:34:32.323Z,4.03
2019-03-06T10:37:01.815Z,4.50
2019-03-06T10:39:31.588Z,4.23
2019-03-06T10:42:01.015Z,4.30
2019-03-06T10:44:30.456Z,4.20
2019-03-06T10:46:59.961Z,4.30
2019-03-06T10:49:29.691Z,4.13
2019-03-06T10:51:59.228Z,3.90
2019-03-06T10:54:28.783Z,4.50
2019-03-06T10:56:58.304Z,4.23
2019-03-06T10:59:27.728Z,3.70
2019-03-06T11:01:57.270Z,4.50
2019-03-06T11:04:28.352Z,4.60
2019-03-06T11:06:57.918Z,3.80
2019-03-06T11:09:27.729Z,3.10
2019-03-06T11:11:57.254Z,3.30
2019-03-06T11:14:27.160Z,3.00
2019-03-06T11:16:56.721Z,2.67
2019-03-06T11:19:26.630Z,2.97
2019-03-06T11:21:56.232Z,3.50
2019-03-06T11:24:25.664Z,2.97
2019-03-06T11:26:55.372Z,3.20
2019-03-06T11:29:24.999Z,3.00
2019-03-06T11:31:54.448Z,2.90
2019-03-06T11:34:24.170Z,3.00
2019-03-06T11:36:53.883Z,2.80
2019-03-06T11:39:23.914Z,2.70
2019-03-06T11:41:53.354Z,2.60
2019-03-06T11:44:22.801Z,3.00
2019-03-06T11:46:53.082Z,2.93
2019-03-06T11:49:22.963Z,2.63
2019-03-06T11:51:52.653Z,2.13
2019-03-06T11:54:22.009Z,2.40
2019-03-06T11:56:53.082Z,1.93
2019-03-06T11:59:22.536Z,1.87
2019-03-06T12:01:51.973Z,1.80
2019-03-06T12:04:21.570Z,2.20
2019-03-06T12:06:50.929Z,1.70
2019-03-06T12:09:27.934Z,1.77
2019-03-06T12:11:57.644Z,1.70
2019-03-06T12:14:27.160Z,1.63
2019-03-06T12:16:58.238Z,1.80
2019-03-06T12:19:27.730Z,2.83
2019-03-06T12:21:57.765Z,2.37
2019-03-06T12:24:27.298Z,1.93
2019-03-06T12:26:56.785Z,1.83
2019-03-06T12:29:27.789Z,1.67
2019-03-06T12:31:57.359Z,1.70
2019-03-06T12:34:27.038Z,2.00
2019-03-06T12:36:56.401Z,1.77
2019-03-06T12:39:25.747Z,1.90
2019-03-06T12:41:55.121Z,2.03
2019-03-06T12:44:24.584Z,2.07
2019-03-06T12:46:54.293Z,1.80
2019-03-06T12:49:24.072Z,2.00
2019-03-06T12:51:54.654Z,2.07
2019-03-06T12:54:24.320Z,1.70
2019-03-06T12:56:53.830Z,1.97
2019-03-06T12:59:23.506Z,1.73
2019-03-06T13:01:53.058Z,1.97
2019-03-06T13:04:22.419Z,2.10
2019-03-06T13:06:51.886Z,1.70
2019-03-06T13:09:22.808Z,2.20
2019-03-06T13:11:52.365Z,1.80
2019-03-06T13:14:22.290Z,1.80
2019-03-06T13:16:52.026Z,2.00
2019-03-06T13:19:21.629Z,2.10
2019-03-06T13:21:51.010Z,1.77
2019-03-06T13:24:20.447Z,1.70
2019-03-06T13:26:49.817Z,1.43
2019-03-06T13:29:19.468Z,1.70
2019-03-06T13:31:48.830Z,2.53
2019-03-06T13:34:22.658Z,1.70
2019-03-06T13:36:52.182Z,1.70
2019-03-06T13:39:21.683Z,1.77
2019-03-06T13:41:51.404Z,1.60
2019-03-06T13:44:20.878Z,1.70
2019-03-06T13:46:50.300Z,1.57
2019-03-06T13:49:19.769Z,1.73
2019-03-06T13:51:49.237Z,1.40
2019-03-06T13:54:18.695Z,1.63
2019-03-06T13:56:48.343Z,2.07
2019-03-06T13:59:17.712Z,1.80
2019-03-06T14:01:47.167Z,1.80
2019-03-06T14:04:16.756Z,1.80
2019-03-06T14:06:46.130Z,1.70
2019-03-06T14:09:15.713Z,1.50
2019-03-06T14:11:45.589Z,2.13
2019-03-06T14:14:15.030Z,1.80
2019-03-06T14:16:44.436Z,1.97
2019-03-06T14:19:13.807Z,1.80
2019-03-06T14:21:43.410Z,1.83
2019-03-06T14:24:12.945Z,1.77
2019-03-06T14:26:42.404Z,1.73
2019-03-06T14:29:12.326Z,2.03
2019-03-06T14:31:41.950Z,2.33
2019-03-06T14:34:11.342Z,2.20
2019-03-06T14:36:40.774Z,2.40
2019-03-06T14:39:27.080Z,2.10
2019-03-06T14:41:57.697Z,2.07
2019-03-06T14:44:27.178Z,1.80
2019-03-06T14:46:56.772Z,1.93
2019-03-06T14:49:26.463Z,2.30
2019-03-06T14:51:55.907Z,1.70
2019-03-06T14:54:25.420Z,1.60
2019-03-06T14:56:54.803Z,1.93
2019-03-06T14:59:24.253Z,1.90
2019-03-06T15:01:53.725Z,1.30
2019-03-06T15:04:23.182Z,1.80
2019-03-06T15:06:52.636Z,1.53
2019-03-06T15:09:24.622Z,1.70
2019-03-06T15:11:54.855Z,1.50
2019-03-06T15:14:24.205Z,1.90
2019-03-06T15:16:53.608Z,1.50
2019-03-06T15:19:23.322Z,1.63
2019-03-06T15:21:52.756Z,1.40
2019-03-06T15:24:22.290Z,1.93
2019-03-06T15:26:51.668Z,2.00
2019-03-06T15:29:21.210Z,1.67
2019-03-06T15:31:51.630Z,1.40
2019-03-06T15:34:21.240Z,1.50
2019-03-06T15:36:50.687Z,1.40
2019-03-06T15:39:23.389Z,1.53
2019-03-06T15:42:00.098Z,1.60
2019-03-06T15:44:23.943Z,1.50
2019-03-06T15:46:53.555Z,1.77
2019-03-06T15:49:23.165Z,1.70
2019-03-06T15:51:52.987Z,1.60
2019-03-06T15:54:22.689Z,1.80
2019-03-06T15:56:52.246Z,1.70
2019-03-06T15:59:22.081Z,1.70
2019-03-06T16:01:51.526Z,1.47
2019-03-06T16:04:21.048Z,1.53
2019-03-06T16:06:53.930Z,2.70
2019-03-06T16:09:21.682Z,2.10
2019-03-06T16:11:51.394Z,2.00
2019-03-06T16:14:23.835Z,1.83
2019-03-06T16:16:53.307Z,1.80
2019-03-06T16:19:22.744Z,2.10
2019-03-06T16:21:52.209Z,1.80
2019-03-06T16:24:22.919Z,1.53
2019-03-06T16:26:52.919Z,1.60
2019-03-06T16:29:23.768Z,1.80
2019-03-06T16:31:53.342Z,1.97
2019-03-06T16:34:22.812Z,2.03
2019-03-06T16:36:52.139Z,1.73
2019-03-06T16:39:22.185Z,1.80
2019-03-06T16:41:51.774Z,2.30
2019-03-06T16:44:21.241Z,1.97
2019-03-06T16:46:50.743Z,1.73
2019-03-06T16:49:20.126Z,1.83
2019-03-06T16:51:49.632Z,1.93
2019-03-06T16:54:20.198Z,2.10
2019-03-06T16:56:49.572Z,2.97
2019-03-06T16:59:19.128Z,3.53
2019-03-06T17:01:48.495Z,3.00
2019-03-06T17:04:17.944Z,2.13
2019-03-06T17:06:47.776Z,2.40
2019-03-06T17:09:17.586Z,2.10
2019-03-06T17:11:46.950Z,2.73
2019-03-06T17:14:16.507Z,3.03
2019-03-06T17:16:46.059Z,2.23
2019-03-06T17:19:17.090Z,2.57
2019-03-06T17:21:48.131Z,2.47
2019-03-06T17:24:17.600Z,2.00
2019-03-06T17:26:47.793Z,1.90
2019-03-06T17:29:17.396Z,1.90
2019-03-06T17:31:47.003Z,1.93
2019-03-06T17:34:16.940Z,2.00
2019-03-06T17:36:48.074Z,2.10
2019-03-06T17:39:17.633Z,1.83
2019-03-06T17:41:46.992Z,1.97
2019-03-06T17:44:16.442Z,2.20
2019-03-06T17:46:45.846Z,2.10
2019-03-06T17:49:15.562Z,2.17
2019-03-06T17:51:45.047Z,2.20
2019-03-06T17:54:14.444Z,1.87
2019-03-06T17:56:43.914Z,2.30
2019-03-06T17:59:13.344Z,2.20
2019-03-06T18:01:42.800Z,2.20
2019-03-06T18:04:15.020Z,2.23
2019-03-06T18:06:44.584Z,2.27
2019-03-06T18:09:16.457Z,2.13
2019-03-06T18:11:45.937Z,3.07
2019-03-06T18:14:15.468Z,2.17
2019-03-06T18:16:44.845Z,2.60
2019-03-06T18:19:14.393Z,2.40
2019-03-06T18:21:43.843Z,2.30
2019-03-06T18:24:13.315Z,2.53
2019-03-06T18:26:42.690Z,2.60
2019-03-06T18:29:12.151Z,2.50
2019-03-06T18:31:41.576Z,2.60
2019-03-06T18:34:11.040Z,2.90
2019-03-06T18:36:40.429Z,2.67
2019-03-06T18:39:11.539Z,3.23
2019-03-06T18:41:42.829Z,2.87
2019-03-06T18:44:12.017Z,2.20
2019-03-06T18:46:41.382Z,2.90
2019-03-06T18:49:10.875Z,2.63
2019-03-06T18:51:41.855Z,2.60
2019-03-06T18:54:11.844Z,2.60
2019-03-06T18:56:42.705Z,2.33
2019-03-06T18:59:12.267Z,3.40
2019-03-06T19:01:41.715Z,3.90
2019-03-06T19:04:11.163Z,3.53
2019-03-06T19:06:41.396Z,4.07
2019-03-06T19:09:11.039Z,8.83
2019-03-06T19:11:40.628Z,7.10
2019-03-06T19:14:10.065Z,5.10
2019-03-06T19:16:39.583Z,4.63
2019-03-06T19:19:09.052Z,18.27
2019-03-06T19:21:38.541Z,21.93
2019-03-06T19:24:08.046Z,6.93
2019-03-06T19:26:37.857Z,6.60
2019-03-06T19:29:07.401Z,5.80
2019-03-06T19:31:36.945Z,8.97
2019-03-06T19:34:06.454Z,9.10
2019-03-06T19:36:35.934Z,16.03
2019-03-06T19:39:06.193Z,4.90
2019-03-06T19:41:36.188Z,4.30
2019-03-06T19:44:05.778Z,14.87
2019-03-06T19:46:35.255Z,15.17
2019-03-06T19:49:05.071Z,10.10
2019-03-06T19:51:34.739Z,5.77
2019-03-06T19:54:04.646Z,4.53
2019-03-06T19:56:34.269Z,3.50
2019-03-06T19:59:16.467Z,3.70
2019-03-06T20:01:46.018Z,4.20
2019-03-06T20:04:15.561Z,4.27
2019-03-06T20:06:45.091Z,3.80
2019-03-06T20:09:26.001Z,3.73
2019-03-06T20:11:58.321Z,4.30
2019-03-06T20:14:26.750Z,5.60
2019-03-06T20:16:56.642Z,5.20
2019-03-06T20:19:26.207Z,6.40
2019-03-06T20:21:55.683Z,16.17
2019-03-06T20:24:25.142Z,8.13
2019-03-06T20:26:54.731Z,4.37
2019-03-06T20:29:24.198Z,4.40
2019-03-06T20:31:53.752Z,4.00
2019-03-06T20:34:23.219Z,6.47
2019-03-06T20:36:53.680Z,3.40
2019-03-06T20:39:23.183Z,4.00
2019-03-06T20:41:52.624Z,3.60
2019-03-06T20:44:22.070Z,4.53
2019-03-06T20:46:51.728Z,4.23
2019-03-06T20:49:21.429Z,4.60
2019-03-06T20:51:51.313Z,3.80
2019-03-06T20:54:20.891Z,4.13
2019-03-06T20:56:50.344Z,3.83
2019-03-06T20:59:19.989Z,4.57
2019-03-06T21:01:49.513Z,4.13
2019-03-06T21:04:20.210Z,4.60
2019-03-06T21:06:52.358Z,4.87
2019-03-06T21:09:21.838Z,4.23
2019-03-06T21:11:51.345Z,4.70
2019-03-06T21:14:20.731Z,4.87
2019-03-06T21:16:50.438Z,5.10
2019-03-06T21:19:19.896Z,4.73
2019-03-06T21:21:49.355Z,5.30
2019-03-06T21:24:18.760Z,5.07
2019-03-06T21:26:48.241Z,5.10
2019-03-06T21:29:17.689Z,7.70
2019-03-06T21:31:47.194Z,11.50
2019-03-06T21:34:16.668Z,11.50
2019-03-06T21:36:46.132Z,10.13
2019-03-06T21:39:22.954Z,10.37
2019-03-06T21:41:52.446Z,10.13
2019-03-06T21:44:21.999Z,8.53
2019-03-06T21:46:51.550Z,8.03
2019-03-06T21:49:21.315Z,8.30
2019-03-06T21:51:50.754Z,5.73
2019-03-06T21:54:20.627Z,5.47
2019-03-06T21:56:50.092Z,15.10
2019-03-06T21:59:19.560Z,9.57
2019-03-06T22:01:49.005Z,6.67
2019-03-06T22:04:18.499Z,6.47
2019-03-06T22:06:47.983Z,5.27
2019-03-06T22:09:17.721Z,7.77
2019-03-06T22:11:47.094Z,8.63
2019-03-06T22:14:16.538Z,6.80
2019-03-06T22:16:45.997Z,5.50
2019-03-06T22:19:15.378Z,4.73
2019-03-06T22:21:44.786Z,5.37
2019-03-06T22:24:14.186Z,9.40
2019-03-06T22:26:43.638Z,8.40
2019-03-06T22:29:13.092Z,8.33
2019-03-06T22:31:42.550Z,8.07
2019-03-06T22:34:11.982Z,7.00
2019-03-06T22:36:41.363Z,6.00
2019-03-06T22:39:11.377Z,5.07
2019-03-06T22:41:40.858Z,6.47
2019-03-06T22:44:10.372Z,11.40
2019-03-06T22:46:39.836Z,27.83
2019-03-06T22:49:09.306Z,14.17
2019-03-06T22:51:38.747Z,13.40
2019-03-06T22:54:08.140Z,10.10
2019-03-06T22:56:37.513Z,9.90
2019-03-06T22:59:07.278Z,6.13
2019-03-06T23:01:37.012Z,5.87
2019-03-06T23:04:06.840Z,6.07
2019-03-06T23:06:36.650Z,6.67
2019-03-06T23:09:09.228Z,8.53
2019-03-06T23:11:39.268Z,7.97
2019-03-06T23:14:08.947Z,6.50
2019-03-06T23:16:38.536Z,5.47
2019-03-06T23:19:08.400Z,5.70
2019-03-06T23:21:37.850Z,7.30
2019-03-06T23:24:07.275Z,6.10
2019-03-06T23:26:42.695Z,6.67
2019-03-06T23:29:08.303Z,8.27
2019-03-06T23:31:38.113Z,6.63
2019-03-06T23:34:07.750Z,6.00
2019-03-06T23:36:37.149Z,6.30
2019-03-06T23:39:09.681Z,5.87
2019-03-06T23:41:39.201Z,6.23
2019-03-06T23:44:08.582Z,5.97
2019-03-06T23:46:37.970Z,5.80
2019-03-06T23:49:07.429Z,5.63
2019-03-06T23:51:38.470Z,4.57
2019-03-06T23:54:07.898Z,4.10
2019-03-06T23:56:37.355Z,4.47
2019-03-06T23:59:07.020Z,3.60
